Tuesday, October 16, 2018, 6:48 PM EDT
Back to Local

KWWD, Wildwood, Cape May County Airport

Location: Villas, NJ, United States Lat: 39.017
Local Time: 6:48 PM EDT (22:48 GMT) Lon: -74.917
Time Zone: US/Eastern Elev: 22 ft

Show me the last for .
Show Decoded

2018-10-16 17:55 METAR KWWD 162155Z AUTO 00000KT 10SM CLR 13/07 A3012 RMK AO2 SLP201 T01330067 =
2018-10-16 16:55 METAR KWWD 162055Z AUTO 28005KT 10SM CLR 14/04 A3012 RMK AO2 SLP203 T01440039
                 56011 =
2018-10-16 15:55 METAR KWWD 161955Z AUTO 30007KT 10SM CLR 15/04 A3012 RMK AO2 SLP203 T01500044 =
2018-10-16 14:55 METAR KWWD 161855Z AUTO 27007KT 10SM CLR 14/05 A3014 RMK AO2 SLP208 T01440050 =
2018-10-16 13:55 METAR KWWD 161755Z AUTO 31007KT 10SM CLR 14/04 A3015 RMK AO2 SLP213 T01390044
                 10144 20122 58018 =
2018-10-16 12:55 METAR KWWD 161655Z AUTO 33007KT 310V020 10SM CLR 14/04 A3020 RMK AO2 SLP227
                 T01440044 =
2018-10-16 11:55 METAR KWWD 161555Z AUTO VRB06KT 10SM CLR 14/04 A3020 RMK AO2 SLP229 T01390044 =
2018-10-16 10:55 METAR KWWD 161455Z AUTO VRB06KT 10SM CLR 13/06 A3021 RMK AO2 SLP231 T01280056
                 50016 =
2018-10-16 09:55 METAR KWWD 161355Z AUTO 34008KT 10SM CLR 13/06 A3021 RMK AO2 SLP232 T01330061 =
2018-10-16 08:55 METAR KWWD 161255Z AUTO 35007KT 10SM CLR 13/06 A3019 RMK AO2 SLP227 T01280056 =
2018-10-16 07:55 METAR KWWD 161155Z AUTO 35007KT 10SM CLR 13/06 A3016 RMK AO2 SLP215 60003 7////
                 T01280056 10183 20128 52024 =
2018-10-16 06:55 METAR KWWD 161055Z AUTO 34008G14KT 310V010 10SM CLR 14/04 A3013 RMK AO2 SLP206
                 T01390044 =
2018-10-16 05:55 METAR KWWD 160955Z AUTO 33008KT 10SM CLR 14/09 A3012 RMK AO2 SLP200 T01440089 =
2018-10-16 04:55 METAR KWWD 160855Z AUTO 33009G15KT 10SM FEW070 OVC090 15/09 A3009 RMK AO2 SLP191
                 60003 T01500089 53008 =
2018-10-16 02:55 METAR KWWD 160655Z AUTO 33008G15KT 10SM -RA FEW013 SCT033 OVC043 16/14 A3007 RMK
                 AO2 SLP183 P0002 T01560139 =
2018-10-16 02:52 METAR KWWD 160652Z AUTO 33007G15KT 10SM -RA FEW011 SCT033 OVC043 16/14 A3007 RMK
                 AO2 P0002 =
2018-10-16 02:23 METAR KWWD 160623Z AUTO 33011G16KT 10SM -RA SCT009 BKN015 OVC022 17/16 A3006 RMK
                 AO2 PRESRR P0001 =
2018-10-16 02:02 METAR KWWD 160602Z AUTO 31008G14KT 10SM -RA BKN009 BKN015 OVC029 18/17 A3004 RMK
                 AO2 CIG 007V012 P0000 =
2018-10-16 01:55 METAR KWWD 160555Z AUTO 32010G20KT 10SM -RA SCT012 BKN026 OVC032 18/16 A3003 RMK
                 AO2 PK WND 28027/0531 WSHFT 0523 RAE18B52 SLP170 P0000 60000 T01830161 10233
                 20183 53022 =
2018-10-16 01:40 METAR KWWD 160540Z AUTO 31012G27KT 10SM SCT017 BKN028 BKN080 19/16 A3001 RMK AO2
                 PK WND 28027/0531 WSHFT 0523 RAE18 PRESRR P0000 =
2018-10-16 00:55 METAR KWWD 160455Z AUTO 23016G20KT 10SM -RA SCT060 BKN120 23/20 A2995 RMK AO2
                 RAB0359 SLP145 P0000 T02280200 402390150 =
2018-10-15 23:55 METAR KWWD 160355Z AUTO 22014G21KT 10SM FEW110 23/19 A2995 RMK AO2 SLP143
                 T02330194 =
2018-10-15 22:55 METAR KWWD 160255Z AUTO 23015G21KT 10SM FEW065 23/19 A2996 RMK AO2 SLP148
                 T02330189 50004 =
2018-10-15 21:55 METAR KWWD 160155Z AUTO 22011KT 10SM CLR 23/19 A2997 RMK AO2 SLP150 T02280189 =
2018-10-15 20:55 METAR KWWD 160055Z AUTO 21012G18KT 10SM CLR 23/19 A2996 RMK AO2 SLP147 T02280194
                 =
2018-10-15 19:55 METAR KWWD 152355Z AUTO 18012KT 10SM CLR 23/19 A2995 RMK AO2 SLP145 6////
                 T02280194 10239 20228 58018 =
2018-10-15 18:55 METAR KWWD 152255Z AUTO 20008KT 10SM SCT100 23/19 A2998 RMK AO2 SLP154 T02280194
                 =

Support USWX by starting your Amazon purchase here.